Time;durP1;ratioP1;P1;durP2;ratioP2;P2;SDS_P1;SDS_P2;PMS_P1;PMS_P2;Temp;Humidity;BMP_temperature;BMP_pressure;BME280_temperature;BME280_humidity;BME280_pressure;Samples;Min_cycle;Max_cycle;Signal;HPM_P1;HPM_P2
2022/07/24 00:02:05;;;;;;;4.55;2.40;;;22.20;99.90;;;;;;4918176;29;20039;-78
2022/07/24 00:04:31;;;;;;;8.35;2.00;;;22.20;99.90;;;;;;4900885;29;20063;-78
2022/07/24 00:06:56;;;;;;;6.65;2.63;;;22.20;99.90;;;;;;4918081;29;20491;-78
2022/07/24 00:09:22;;;;;;;7.10;2.20;;;22.20;99.90;;;;;;4918043;29;20032;-78
2022/07/24 00:11:48;;;;;;;6.28;2.13;;;22.20;99.90;;;;;;4917553;29;20477;-78
2022/07/24 00:14:14;;;;;;;4.70;2.20;;;22.30;99.90;;;;;;4917821;29;20657;-78
2022/07/24 00:16:39;;;;;;;5.50;2.33;;;22.20;99.90;;;;;;4900859;29;20046;-78
2022/07/24 00:19:05;;;;;;;5.40;2.20;;;22.20;99.90;;;;;;4917671;29;20028;-78
2022/07/24 00:21:31;;;;;;;7.82;2.40;;;22.20;99.90;;;;;;4900544;29;20032;-78
2022/07/24 00:23:56;;;;;;;7.95;2.58;;;22.20;99.90;;;;;;4917657;29;20028;-78
2022/07/24 00:26:22;;;;;;;5.47;2.13;;;22.20;99.90;;;;;;4918023;29;20024;-78
2022/07/24 00:28:48;;;;;;;5.32;2.53;;;22.20;99.90;;;;;;4917226;29;20035;-78
2022/07/24 00:31:14;;;;;;;7.30;2.08;;;22.30;99.90;;;;;;4917364;29;20143;-78
2022/07/24 00:33:40;;;;;;;5.07;1.92;;;22.20;99.90;;;;;;4917314;29;20466;-78
2022/07/24 00:36:06;;;;;;;5.35;2.72;;;22.20;99.90;;;;;;4916856;29;20043;-78
2022/07/24 00:38:32;;;;;;;7.03;2.00;;;22.10;99.90;;;;;;4917650;29;20111;-78
2022/07/24 00:40:58;;;;;;;4.72;2.20;;;22.20;99.90;;;;;;4916906;29;20024;-78
2022/07/24 00:43:23;;;;;;;10.05;2.33;;;22.10;99.90;;;;;;4917413;29;20032;-78
2022/07/24 00:45:49;;;;;;;4.63;2.33;;;22.10;99.90;;;;;;4917369;29;20028;-78
2022/07/24 00:48:16;;;;;;;6.53;2.70;;;22.10;99.90;;;;;;4916978;29;20028;-78
2022/07/24 00:50:42;;;;;;;4.93;2.30;;;22.10;99.90;;;;;;4917419;29;20484;-78
2022/07/24 00:53:08;;;;;;;9.15;2.10;;;22.00;99.90;;;;;;4917159;29;20032;-78
2022/07/24 00:55:34;;;;;;;7.72;2.40;;;21.90;99.90;;;;;;4917128;29;20028;-78
2022/07/24 00:58:00;;;;;;;6.82;2.28;;;21.90;99.90;;;;;;4917064;29;20036;-78
2022/07/24 01:00:26;;;;;;;4.10;2.30;;;21.80;99.90;;;;;;4917188;29;20120;-78
2022/07/24 01:02:52;;;;;;;4.80;2.25;;;21.80;99.90;;;;;;4917222;29;20040;-78
2022/07/24 01:05:18;;;;;;;5.20;2.28;;;21.80;99.90;;;;;;4917168;29;20454;-78
2022/07/24 01:07:44;;;;;;;6.82;2.33;;;21.80;99.90;;;;;;4916998;29;20028;-78
2022/07/24 01:10:10;;;;;;;4.78;2.17;;;21.80;99.90;;;;;;4916932;29;20028;-78
2022/07/24 01:12:38;;;;;;;5.13;2.42;;;21.90;99.90;;;;;;4917258;29;20028;-78
2022/07/24 01:15:05;;;;;;;5.35;2.42;;;21.90;99.90;;;;;;4916476;29;20035;-77
2022/07/24 01:17:35;;;;;;;4.35;2.08;;;21.90;99.90;;;;;;4916238;29;20492;-77
2022/07/24 01:20:03;;;;;;;4.68;2.20;;;21.80;99.90;;;;;;4916993;29;20111;-78
2022/07/24 01:22:28;;;;;;;4.70;2.28;;;21.80;99.90;;;;;;4916568;29;20099;-78
2022/07/24 01:24:55;;;;;;;7.22;2.40;;;21.80;99.90;;;;;;4899790;29;20127;-78
2022/07/24 01:27:22;;;;;;;5.97;2.47;;;21.70;99.90;;;;;;4916772;29;20043;-78
2022/07/24 01:29:48;;;;;;;5.30;2.70;;;21.80;99.90;;;;;;4916198;29;20140;-78
2022/07/24 01:32:14;;;;;;;5.22;2.30;;;21.80;99.90;;;;;;4916193;29;20031;-78
2022/07/24 01:34:40;;;;;;;4.95;2.00;;;21.70;99.90;;;;;;4916927;29;20036;-78
2022/07/24 01:37:06;;;;;;;8.25;2.30;;;21.70;99.90;;;;;;4916723;29;20078;-78
2022/07/24 01:39:32;;;;;;;5.50;2.40;;;21.70;99.90;;;;;;4916644;29;20044;-78
2022/07/24 01:41:58;;;;;;;6.35;2.20;;;21.70;99.90;;;;;;4916514;29;20055;-78
2022/07/24 01:44:23;;;;;;;4.85;2.08;;;21.60;99.90;;;;;;4916485;29;20024;-78
2022/07/24 01:46:49;;;;;;;5.97;2.50;;;21.70;99.90;;;;;;4916430;29;20063;-78
2022/07/24 01:49:15;;;;;;;7.40;2.80;;;21.60;99.90;;;;;;4916302;29;20102;-77
2022/07/24 01:51:40;;;;;;;4.75;2.20;;;21.50;99.90;;;;;;4916751;29;20028;-77
2022/07/24 01:54:06;;;;;;;7.13;2.65;;;21.60;99.90;;;;;;4915969;29;20035;-78
2022/07/24 01:56:33;;;;;;;5.32;2.28;;;21.60;99.90;;;;;;4916478;29;20543;-77
2022/07/24 01:58:58;;;;;;;6.75;2.60;;;21.50;99.90;;;;;;4916428;29;20020;-78
2022/07/24 02:01:25;;;;;;;6.43;2.38;;;21.60;99.90;;;;;;4917808;29;21748;-78
2022/07/24 02:03:51;;;;;;;6.10;2.55;;;21.50;99.90;;;;;;4935352;29;20552;-78
2022/07/24 02:06:17;;;;;;;5.75;2.90;;;21.40;99.90;;;;;;4935256;29;20107;-78
2022/07/24 02:08:42;;;;;;;4.63;1.92;;;21.40;99.90;;;;;;4933150;29;20031;-78
2022/07/24 02:11:08;;;;;;;4.70;2.78;;;21.30;99.90;;;;;;4915745;29;20115;-78
2022/07/24 02:13:34;;;;;;;7.40;2.65;;;21.40;99.90;;;;;;4915999;29;20043;-78
2022/07/24 02:15:59;;;;;;;7.50;2.50;;;21.40;99.90;;;;;;4899137;29;20040;-78
2022/07/24 02:18:25;;;;;;;7.80;3.40;;;21.40;99.90;;;;;;4916387;29;20107;-78
2022/07/24 02:20:51;;;;;;;6.55;2.58;;;21.30;99.90;;;;;;4916452;29;20397;-78
2022/07/24 02:23:20;;;;;;;4.50;2.53;;;21.30;99.90;;;;;;4915771;29;20078;-78
2022/07/24 02:25:46;;;;;;;6.47;2.30;;;21.30;99.90;;;;;;4916433;29;20107;-78
2022/07/24 02:28:12;;;;;;;8.88;2.40;;;21.30;99.90;;;;;;4915874;29;20032;-78
2022/07/24 02:30:38;;;;;;;3.30;2.10;;;21.30;99.90;;;;;;4916009;29;20044;-79
2022/07/24 02:33:04;;;;;;;5.22;2.33;;;21.20;99.90;;;;;;4915857;29;20115;-78
2022/07/24 02:35:29;;;;;;;5.15;2.20;;;21.30;99.90;;;;;;4918867;29;20078;-78
2022/07/24 02:37:55;;;;;;;4.05;2.30;;;21.20;99.90;;;;;;4919551;29;20036;-78
2022/07/24 02:40:21;;;;;;;6.43;2.63;;;21.10;99.90;;;;;;4919555;29;20031;-78
2022/07/24 02:42:46;;;;;;;6.60;2.65;;;21.20;99.90;;;;;;4919337;29;20060;-78
2022/07/24 02:45:12;;;;;;;4.00;2.63;;;21.00;99.90;;;;;;4919570;29;20024;-78
2022/07/24 02:47:50;;;;;;;7.28;2.30;;;21.10;99.90;;;;;;4919408;29;20032;-78
2022/07/24 02:50:17;;;;;;;7.30;2.63;;;21.10;99.90;;;;;;4919668;29;20028;-78
2022/07/24 02:52:43;;;;;;;6.18;2.83;;;21.10;99.90;;;;;;4919436;29;20111;-77
2022/07/24 02:55:09;;;;;;;4.38;2.60;;;21.10;99.90;;;;;;4919310;29;20115;-77
2022/07/24 02:57:35;;;;;;;6.40;2.30;;;21.00;99.90;;;;;;4919209;29;20024;-78
2022/07/24 03:00:03;;;;;;;5.88;2.72;;;21.00;99.90;;;;;;4919536;29;20032;-77
2022/07/24 03:02:29;;;;;;;7.47;2.65;;;21.00;99.90;;;;;;4919213;29;20035;-78
2022/07/24 03:04:54;;;;;;;4.70;2.95;;;21.00;99.90;;;;;;4902551;29;20032;-78
2022/07/24 03:07:20;;;;;;;5.22;2.30;;;21.00;99.90;;;;;;4902058;29;20032;-78
2022/07/24 03:09:45;;;;;;;5.53;2.67;;;21.00;99.90;;;;;;4919251;29;20042;-78
2022/07/24 03:12:11;;;;;;;6.43;3.00;;;21.00;99.90;;;;;;4918768;29;20063;-78
2022/07/24 03:14:38;;;;;;;6.32;2.83;;;21.00;99.90;;;;;;4919239;29;20459;-78
2022/07/24 03:17:04;;;;;;;4.25;2.50;;;20.90;99.90;;;;;;4901701;29;20452;-78
2022/07/24 03:19:30;;;;;;;5.15;2.58;;;20.90;99.90;;;;;;4919158;29;20036;-78
2022/07/24 03:21:55;;;;;;;6.15;2.63;;;20.90;99.90;;;;;;4919354;29;20072;-78
2022/07/24 03:24:21;;;;;;;5.68;2.40;;;20.80;99.90;;;;;;4901965;29;20036;-78
2022/07/24 03:26:46;;;;;;;8.35;2.88;;;20.80;99.90;;;;;;4918435;29;20060;-78
2022/07/24 03:29:12;;;;;;;6.25;2.78;;;20.70;99.90;;;;;;4918217;29;20048;-78
2022/07/24 03:31:38;;;;;;;5.85;2.53;;;20.80;99.90;;;;;;4901540;29;20028;-78
2022/07/24 03:34:04;;;;;;;6.95;2.88;;;20.70;99.90;;;;;;4901868;29;20036;-78
2022/07/24 03:36:29;;;;;;;7.43;2.85;;;20.70;99.90;;;;;;4918365;29;20032;-78
2022/07/24 03:38:55;;;;;;;6.50;2.47;;;20.50;99.90;;;;;;4918502;29;20095;-78
2022/07/24 03:41:21;;;;;;;6.00;2.85;;;20.60;99.90;;;;;;4918131;29;20091;-78
2022/07/24 03:43:46;;;;;;;5.78;2.95;;;20.50;99.90;;;;;;4901371;29;20035;-78
2022/07/24 03:46:12;;;;;;;7.57;2.80;;;20.60;99.90;;;;;;4917915;29;20362;-77
2022/07/24 03:48:38;;;;;;;6.05;2.78;;;20.50;99.90;;;;;;4918364;29;20087;-77
2022/07/24 03:51:03;;;;;;;10.00;2.67;;;20.60;99.90;;;;;;4918693;29;20035;-78
2022/07/24 03:53:29;;;;;;;6.97;2.25;;;20.50;99.90;;;;;;4918520;29;20043;-77
2022/07/24 03:55:55;;;;;;;6.05;2.78;;;20.50;99.90;;;;;;4917574;29;20079;-78
2022/07/24 03:58:21;;;;;;;5.28;2.72;;;20.50;99.90;;;;;;4918147;29;20028;-78
2022/07/24 04:00:46;;;;;;;7.55;2.35;;;20.50;99.90;;;;;;4918048;29;20453;-78
2022/07/24 04:03:12;;;;;;;10.77;2.58;;;20.70;99.90;;;;;;4918086;29;20024;-78
2022/07/24 04:05:38;;;;;;;4.13;2.63;;;20.60;99.90;;;;;;4918381;29;20039;-78
2022/07/24 04:08:03;;;;;;;5.78;2.70;;;20.60;99.90;;;;;;4918124;29;20032;-77
2022/07/24 04:10:29;;;;;;;6.22;2.30;;;20.50;99.90;;;;;;4917569;29;20022;-78
2022/07/24 04:12:55;;;;;;;4.07;2.63;;;20.40;99.90;;;;;;4899248;29;20036;-78
2022/07/24 04:15:20;;;;;;;6.57;2.47;;;20.30;99.90;;;;;;4902143;29;20034;-78
2022/07/24 04:17:46;;;;;;;5.80;2.47;;;20.30;99.90;;;;;;4917782;29;20035;-78
2022/07/24 04:20:12;;;;;;;8.63;2.40;;;20.30;99.90;;;;;;4917787;29;20031;-78
2022/07/24 04:22:38;;;;;;;6.15;2.88;;;20.30;99.90;;;;;;4917886;29;20024;-77
2022/07/24 04:25:05;;;;;;;4.45;2.30;;;20.50;99.90;;;;;;4917495;29;20024;-78
2022/07/24 04:27:30;;;;;;;7.75;2.35;;;20.40;99.90;;;;;;4917640;29;20043;-77
2022/07/24 04:29:57;;;;;;;5.13;2.75;;;20.40;99.90;;;;;;4917397;29;20509;-78
2022/07/24 04:32:24;;;;;;;7.15;2.65;;;20.30;99.90;;;;;;4917659;29;20025;-77
2022/07/24 04:34:49;;;;;;;6.93;2.92;;;20.40;99.90;;;;;;4900482;29;20425;-77
2022/07/24 04:37:15;;;;;;;7.93;2.70;;;20.40;99.90;;;;;;4917282;29;20033;-78
2022/07/24 04:39:40;;;;;;;5.40;2.30;;;20.50;99.90;;;;;;4916946;29;20457;-78
2022/07/24 04:42:06;;;;;;;6.72;2.83;;;20.50;99.90;;;;;;4917429;29;20566;-78
2022/07/24 04:44:32;;;;;;;9.55;3.03;;;20.30;99.90;;;;;;4917083;29;20022;-77
2022/07/24 04:46:57;;;;;;;6.40;2.60;;;20.30;99.90;;;;;;4917643;29;20032;-78
2022/07/24 04:49:23;;;;;;;7.93;2.83;;;20.20;99.90;;;;;;4917049;29;20028;-78
2022/07/24 04:51:49;;;;;;;7.07;2.80;;;20.20;99.90;;;;;;4917444;29;20035;-77
2022/07/24 04:54:14;;;;;;;6.95;2.70;;;20.30;99.90;;;;;;4917002;29;20440;-78
2022/07/24 04:56:40;;;;;;;8.95;2.15;;;20.30;99.90;;;;;;4916262;29;20032;-78
2022/07/24 04:59:06;;;;;;;6.50;2.63;;;20.30;99.90;;;;;;4917299;29;20075;-77
2022/07/24 05:01:31;;;;;;;5.57;2.67;;;20.30;99.90;;;;;;4917142;29;20032;-78
2022/07/24 05:03:58;;;;;;;7.10;2.90;;;20.40;99.90;;;;;;4917047;29;20063;-77
2022/07/24 05:06:24;;;;;;;6.88;2.40;;;20.40;99.90;;;;;;4916838;29;20043;-77
2022/07/24 05:08:50;;;;;;;8.05;2.78;;;20.40;99.90;;;;;;4916507;29;20115;-78
2022/07/24 05:11:16;;;;;;;5.30;2.60;;;20.40;99.90;;;;;;4916857;29;20123;-78
2022/07/24 05:13:42;;;;;;;6.13;2.60;;;20.30;99.90;;;;;;4916777;29;20032;-77
2022/07/24 05:16:07;;;;;;;5.05;2.58;;;20.30;99.90;;;;;;4916749;29;20053;-77
2022/07/24 05:18:33;;;;;;;10.25;2.85;;;20.30;99.90;;;;;;4916913;29;20075;-77
2022/07/24 05:20:59;;;;;;;8.95;3.10;;;20.30;99.90;;;;;;4916896;29;20032;-78
2022/07/24 05:23:25;;;;;;;8.90;2.88;;;20.40;99.90;;;;;;4916117;29;20028;-77
2022/07/24 05:25:50;;;;;;;10.18;3.03;;;20.40;99.90;;;;;;4934720;29;20039;-77
2022/07/24 05:28:17;;;;;;;8.57;3.58;;;20.50;99.90;;;;;;4935971;29;20020;-77
2022/07/24 05:30:43;;;;;;;5.60;3.08;;;20.50;99.90;;;;;;4935465;29;20051;-77
2022/07/24 05:33:08;;;;;;;7.38;2.80;;;20.60;99.90;;;;;;4935589;29;20035;-78
2022/07/24 05:35:34;;;;;;;9.57;2.58;;;20.60;99.90;;;;;;4935482;29;20111;-78
2022/07/24 05:37:59;;;;;;;4.88;2.55;;;20.60;99.90;;;;;;4933291;29;20103;-78
2022/07/24 05:40:25;;;;;;;8.93;2.45;;;20.60;99.90;;;;;;4916488;29;20028;-77
2022/07/24 05:42:51;;;;;;;5.13;2.83;;;20.60;99.90;;;;;;4916720;29;20031;-77
2022/07/24 05:45:16;;;;;;;4.93;2.67;;;20.60;99.90;;;;;;4916724;29;20075;-78
2022/07/24 05:47:42;;;;;;;9.55;3.15;;;20.60;99.90;;;;;;4899628;29;20020;-78
2022/07/24 05:50:10;;;;;;;6.43;2.85;;;20.60;99.90;;;;;;4916572;29;20123;-78
2022/07/24 05:52:36;;;;;;;8.18;3.25;;;20.60;99.90;;;;;;4915806;29;20107;-77
2022/07/24 05:55:02;;;;;;;5.53;3.05;;;20.70;99.90;;;;;;4916394;29;20063;-78
2022/07/24 05:57:28;;;;;;;7.90;3.00;;;20.70;99.90;;;;;;4916183;29;20035;-77
2022/07/24 05:59:54;;;;;;;7.03;2.83;;;20.80;99.90;;;;;;4899332;29;20024;-78
2022/07/24 06:02:19;;;;;;;4.22;2.75;;;20.90;99.90;;;;;;4916447;29;20032;-78
2022/07/24 06:04:45;;;;;;;5.65;3.00;;;20.90;99.90;;;;;;4916248;29;20032;-77
2022/07/24 06:07:11;;;;;;;5.85;3.35;;;20.90;99.90;;;;;;4916179;29;20134;-78
2022/07/24 06:09:37;;;;;;;5.75;2.45;;;20.90;99.90;;;;;;4919760;29;20036;-78
2022/07/24 06:12:04;;;;;;;5.47;2.75;;;21.00;99.90;;;;;;4919952;29;20457;-78
2022/07/24 06:14:30;;;;;;;7.10;2.75;;;20.90;99.90;;;;;;4919723;29;20114;-78
2022/07/24 06:16:56;;;;;;;6.40;3.00;;;21.00;99.90;;;;;;4903177;29;20035;-78
2022/07/24 06:19:22;;;;;;;5.97;2.40;;;21.10;99.90;;;;;;4919792;29;20029;-78
2022/07/24 06:21:47;;;;;;;6.10;2.67;;;21.10;99.90;;;;;;4919370;29;20025;-78
2022/07/24 06:24:13;;;;;;;8.98;3.08;;;21.20;99.90;;;;;;4920070;29;20068;-78
2022/07/24 06:26:39;;;;;;;7.90;3.15;;;21.30;99.90;;;;;;4920242;29;20036;-78
2022/07/24 06:29:04;;;;;;;4.88;2.78;;;21.30;99.90;;;;;;4903847;29;20500;-78
2022/07/24 06:31:30;;;;;;;6.75;3.25;;;21.30;99.90;;;;;;4919694;29;20028;-78
2022/07/24 06:33:56;;;;;;;5.00;2.90;;;21.30;99.90;;;;;;4919656;29;20039;-78
2022/07/24 06:36:22;;;;;;;3.60;2.50;;;21.40;99.90;;;;;;4919703;29;20060;-78
2022/07/24 06:38:48;;;;;;;5.00;2.65;;;21.50;99.90;;;;;;4919599;29;20079;-78
2022/07/24 06:41:14;;;;;;;4.82;3.13;;;21.50;99.90;;;;;;4919614;29;20020;-80
2022/07/24 06:43:39;;;;;;;8.48;2.83;;;21.50;99.90;;;;;;4918716;29;20032;-79
2022/07/24 06:46:05;;;;;;;5.97;2.65;;;21.60;99.90;;;;;;4929061;29;20026;-82
2022/07/24 06:48:31;;;;;;;6.35;3.03;;;21.60;99.90;;;;;;4929774;29;20035;-81
2022/07/24 06:50:57;;;;;;;5.90;3.10;;;21.60;99.90;;;;;;4927092;29;20024;-81
2022/07/24 06:53:22;;;;;;;11.45;3.03;;;21.70;99.90;;;;;;4919819;29;20032;-83
2022/07/24 06:55:48;;;;;;;6.80;2.92;;;21.70;99.90;;;;;;4917930;29;20032;-83
2022/07/24 06:58:14;;;;;;;4.85;3.35;;;21.80;99.90;;;;;;4919708;29;20103;-77
2022/07/24 07:00:40;;;;;;;8.15;2.90;;;21.90;99.90;;;;;;4919401;29;20070;-77
2022/07/24 07:03:05;;;;;;;6.68;3.15;;;22.00;99.90;;;;;;4919181;29;20104;-78
2022/07/24 07:05:31;;;;;;;8.35;3.22;;;22.10;99.90;;;;;;4919308;29;20031;-80
2022/07/24 07:07:57;;;;;;;6.75;3.40;;;22.10;99.90;;;;;;4917902;29;20100;-76
2022/07/24 07:10:23;;;;;;;6.85;3.08;;;22.20;99.90;;;;;;4919061;29;20021;-84
2022/07/24 07:12:49;;;;;;;4.93;3.05;;;22.30;99.90;;;;;;4919610;29;20397;-76
2022/07/24 07:15:15;;;;;;;6.53;2.97;;;22.30;99.90;;;;;;4920920;29;20052;-75
2022/07/24 07:17:42;;;;;;;5.55;3.35;;;22.30;99.90;;;;;;4912975;29;20025;-75
2022/07/24 07:20:09;;;;;;;5.57;3.42;;;22.40;99.90;;;;;;4923960;29;20020;-78
2022/07/24 07:22:35;;;;;;;8.52;3.40;;;22.50;99.90;;;;;;4925060;29;20496;-75
2022/07/24 07:25:01;;;;;;;7.40;3.13;;;22.60;99.90;;;;;;4928229;29;20023;-79
2022/07/24 07:27:27;;;;;;;13.40;4.20;;;22.70;99.90;;;;;;4916207;29;20032;-76
2022/07/24 07:29:55;;;;;;;6.68;3.05;;;22.80;99.90;;;;;;4916336;29;20038;-79
2022/07/24 07:32:20;;;;;;;9.80;3.22;;;22.80;99.90;;;;;;4912740;29;20035;-78
2022/07/24 07:34:46;;;;;;;10.93;3.72;;;22.90;99.90;;;;;;4919481;29;20028;-76
2022/07/24 07:37:12;;;;;;;24.90;7.32;;;22.90;99.90;;;;;;4919955;29;20039;-77
2022/07/24 07:39:37;;;;;;;37.25;9.90;;;23.00;99.90;;;;;;4919334;29;20397;-77
2022/07/24 07:42:03;;;;;;;22.17;7.03;;;23.10;99.90;;;;;;4929932;29;20028;-77
2022/07/24 07:44:29;;;;;;;15.18;4.38;;;23.10;99.90;;;;;;4923913;29;20102;-75
2022/07/24 07:46:54;;;;;;;8.00;3.17;;;23.20;99.90;;;;;;4921638;29;20032;-76
2022/07/24 07:49:20;;;;;;;27.90;7.13;;;23.20;99.90;;;;;;4917902;29;20056;-76
2022/07/24 07:51:47;;;;;;;38.28;6.05;;;23.30;99.90;;;;;;4926170;29;20401;-78
2022/07/24 10:10:12;;;;;;;6.05;3.53;;;32.00;63.70;;;;;;5159351;23;20273;-85
2022/07/24 10:12:38;;;;;;;9.45;3.17;;;32.10;62.10;;;;;;4932180;29;20040;-83
2022/07/24 10:15:05;;;;;;;5.35;3.45;;;32.10;63.40;;;;;;4934211;29;20036;-82
2022/07/24 10:17:40;;;;;;;10.00;3.40;;;32.10;61.10;;;;;;4934424;29;20387;-79
2022/07/24 10:20:08;;;;;;;11.52;3.20;;;32.60;59.30;;;;;;4932696;29;20024;-81
2022/07/24 10:22:47;;;;;;;4.78;3.13;;;32.40;57.40;;;;;;4932001;29;20484;-82
2022/07/24 10:25:18;;;;;;;7.82;3.30;;;32.50;58.00;;;;;;4932031;29;20019;-82
2022/07/24 10:27:47;;;;;;;;;;;32.80;57.60;;;;;;4935372;29;20020;-89
2022/07/24 10:30:13;;;;;;;7.85;2.90;;;33.10;56.00;;;;;;4931993;29;19919;-82
2022/07/24 10:32:39;;;;;;;6.03;3.30;;;32.80;56.60;;;;;;4932427;29;20121;-82
2022/07/24 10:35:19;;;;;;;6.15;3.63;;;33.30;55.00;;;;;;4935911;29;20028;-82
2022/07/24 10:38:06;;;;;;;5.55;2.83;;;33.40;53.20;;;;;;4931897;29;20060;-82
2022/07/24 10:40:44;;;;;;;5.22;3.13;;;33.30;54.10;;;;;;4928925;29;20024;-82
2022/07/24 10:43:13;;;;;;;4.88;3.13;;;33.20;52.90;;;;;;4932543;29;20082;-82
2022/07/24 10:45:40;;;;;;;6.22;2.92;;;32.80;51.80;;;;;;4934012;29;20016;-81
2022/07/24 10:48:20;;;;;;;5.05;3.10;;;33.20;51.90;;;;;;4932466;29;20098;-81
2022/07/24 10:50:59;;;;;;;4.68;3.10;;;33.60;52.20;;;;;;4933527;29;20480;-81
2022/07/24 10:53:30;;;;;;;5.03;3.55;;;33.70;50.80;;;;;;4931851;29;20051;-81
2022/07/24 10:56:15;;;;;;;11.53;3.63;;;33.70;50.50;;;;;;4934883;29;20028;-82
2022/07/24 10:59:04;;;;;;;5.85;3.20;;;33.70;50.60;;;;;;4937039;29;20256;-81
2022/07/24 11:01:36;;;;;;;10.50;3.85;;;33.70;52.70;;;;;;4936908;29;20488;-81
2022/07/24 11:04:22;;;;;;;4.93;2.92;;;33.80;49.00;;;;;;4935219;29;20024;-81
2022/07/24 11:07:09;;;;;;;7.50;3.00;;;33.50;49.40;;;;;;4930067;29;20046;-81
2022/07/24 11:10:01;;;;;;;9.85;3.10;;;33.70;49.90;;;;;;4943146;29;20121;-82
2022/07/24 11:12:32;;;;;;;8.38;3.35;;;34.10;50.70;;;;;;4937785;29;20028;-81
2022/07/24 11:17:47;;;;;;;5.90;3.30;;;34.30;49.60;;;;;;4941646;29;20030;-79
2022/07/24 11:20:21;;;;;;;7.97;3.13;;;34.40;49.10;;;;;;4952624;29;20015;-81
2022/07/24 11:22:51;;;;;;;9.05;3.40;;;34.20;45.90;;;;;;4955443;29;20064;-80
2022/07/24 11:25:28;;;;;;;6.70;3.25;;;34.20;47.00;;;;;;4952292;29;20016;-83
2022/07/24 11:27:58;;;;;;;5.45;3.30;;;34.20;46.60;;;;;;4956405;29;20035;-80
2022/07/24 11:30:26;;;;;;;3.53;2.67;;;34.10;47.00;;;;;;4922403;29;20432;-79
2022/07/24 11:32:52;;;;;;;4.53;3.50;;;34.50;47.20;;;;;;4919978;29;20408;-79
2022/07/24 11:35:31;;;;;;;6.70;3.35;;;34.80;46.70;;;;;;4946638;29;20054;-79
2022/07/24 11:37:59;;;;;;;5.60;3.50;;;34.60;46.40;;;;;;4937157;29;20027;-81
2022/07/24 11:40:25;;;;;;;6.32;3.40;;;34.80;47.20;;;;;;4944024;29;20591;-83
2022/07/24 11:42:59;;;;;;;5.97;3.35;;;34.80;45.40;;;;;;4937449;29;20099;-80
2022/07/24 11:45:25;;;;;;;10.75;3.33;;;34.90;45.10;;;;;;4933578;29;20050;-82
2022/07/24 11:47:50;;;;;;;5.57;3.03;;;34.80;46.40;;;;;;4940554;29;20055;-78
2022/07/24 11:50:20;;;;;;;5.82;3.30;;;34.50;46.60;;;;;;4943090;29;20027;-79
2022/07/24 11:52:46;;;;;;;10.20;3.50;;;35.10;46.10;;;;;;4955946;29;20077;-79
2022/07/24 11:55:16;;;;;;;6.18;3.42;;;35.10;44.80;;;;;;4936391;29;20531;-79
2022/07/24 11:57:45;;;;;;;8.85;3.53;;;34.90;44.80;;;;;;4951237;29;20030;-82
2022/07/24 12:00:21;;;;;;;10.40;4.72;;;35.10;44.00;;;;;;4946346;29;20497;-74
2022/07/24 12:02:51;;;;;;;5.65;3.55;;;35.10;44.60;;;;;;4947899;29;20019;-79
2022/07/24 12:05:35;;;;;;;6.30;3.20;;;34.80;43.70;;;;;;4937245;29;20446;-80
2022/07/24 12:08:04;;;;;;;6.45;3.58;;;35.10;43.70;;;;;;4937722;29;20059;-79
2022/07/24 12:10:29;;;;;;;7.85;3.85;;;34.90;44.40;;;;;;4933775;29;20574;-79
2022/07/24 12:12:56;;;;;;;5.50;3.05;;;34.70;45.10;;;;;;4934769;29;20111;-78
2022/07/24 12:15:24;;;;;;;4.47;3.10;;;34.90;44.30;;;;;;4939673;29;20426;-79
2022/07/24 12:18:00;;;;;;;5.38;3.65;;;35.20;43.40;;;;;;4934131;29;20528;-79
2022/07/24 12:20:27;;;;;;;7.10;3.58;;;34.90;42.90;;;;;;4934243;29;20042;-79
2022/07/24 12:22:54;;;;;;;6.05;3.38;;;35.00;43.00;;;;;;4934881;29;20026;-80
2022/07/24 12:25:21;;;;;;;6.97;3.33;;;35.50;43.90;;;;;;4934352;29;20030;-79
2022/07/24 12:27:47;;;;;;;3.65;2.85;;;35.40;42.80;;;;;;4938250;29;20134;-79
2022/07/24 12:30:22;;;;;;;6.32;3.40;;;35.50;42.50;;;;;;4936619;29;20076;-80
2022/07/24 12:33:20;;;;;;;13.00;3.85;;;35.50;42.50;;;;;;4932666;29;20038;-79
2022/07/24 12:35:58;;;;;;;5.00;3.47;;;35.00;42.10;;;;;;4934746;29;20036;-80
2022/07/24 12:38:35;;;;;;;9.38;3.20;;;35.70;41.40;;;;;;4934952;29;20024;-81
2022/07/24 12:41:11;;;;;;;86.80;7.35;;;36.20;42.00;;;;;;4935689;29;20519;-79
2022/07/24 12:44:03;;;;;;;6.22;3.60;;;36.10;41.60;;;;;;4935638;29;20527;-80
2022/07/24 12:46:44;;;;;;;9.55;3.30;;;36.30;40.80;;;;;;4935236;29;20526;-80
2022/07/24 12:49:17;;;;;;;54.10;6.50;;;35.80;40.40;;;;;;4935120;29;20019;-80
2022/07/24 12:52:00;;;;;;;6.70;3.22;;;36.10;41.90;;;;;;4934728;29;20507;-80
2022/07/24 12:54:31;;;;;;;4.75;3.80;;;36.50;40.20;;;;;;4933902;29;20094;-80
2022/07/24 12:56:57;;;;;;;;;;;36.40;39.70;;;;;;4935801;29;20027;-80
2022/07/24 12:59:28;;;;;;;9.43;3.65;;;36.30;40.20;;;;;;4935420;29;20006;-80
2022/07/24 13:01:56;;;;;;;6.68;4.32;;;36.20;40.00;;;;;;4934841;29;20055;-80
2022/07/24 13:04:24;;;;;;;6.53;3.60;;;35.50;41.10;;;;;;4934654;29;20123;-80
2022/07/24 13:06:52;;;;;;;11.55;3.50;;;35.60;40.80;;;;;;4934321;29;20090;-79
2022/07/24 13:09:18;;;;;;;8.40;3.88;;;35.80;41.00;;;;;;4935085;29;20054;-80
2022/07/24 13:11:46;;;;;;;7.43;3.53;;;35.90;39.70;;;;;;4934491;29;20031;-78
2022/07/24 13:14:13;;;;;;;6.03;4.13;;;35.90;40.20;;;;;;4934510;29;20024;-79
2022/07/24 13:16:41;;;;;;;6.57;3.97;;;36.30;39.80;;;;;;4933829;29;20024;-78
2022/07/24 13:19:07;;;;;;;7.40;4.18;;;36.00;39.90;;;;;;4932507;29;20047;-78
2022/07/24 13:21:34;;;;;;;5.95;3.95;;;36.00;40.70;;;;;;4934321;29;20024;-79
2022/07/24 13:24:00;;;;;;;7.68;3.33;;;35.80;39.40;;;;;;4934497;29;20071;-80
2022/07/24 13:26:26;;;;;;;5.80;3.70;;;36.10;39.80;;;;;;4940813;29;20043;-78
2022/07/24 13:28:52;;;;;;;8.55;3.67;;;36.20;40.10;;;;;;4934143;29;20411;-77
2022/07/24 13:31:19;;;;;;;9.30;4.15;;;36.20;38.80;;;;;;4933791;29;20040;-78
2022/07/24 13:33:47;;;;;;;7.50;3.47;;;36.10;39.20;;;;;;4924852;29;20115;-78
2022/07/24 13:36:12;;;;;;;7.82;3.97;;;36.30;40.10;;;;;;4937467;29;20043;-78
2022/07/24 13:38:40;;;;;;;8.02;3.63;;;36.40;39.10;;;;;;4933378;29;20075;-78
2022/07/24 13:41:05;;;;;;;5.55;3.53;;;36.50;38.70;;;;;;4932401;29;20035;-79
2022/07/24 13:43:31;;;;;;;6.57;4.15;;;36.40;38.50;;;;;;4935321;29;20030;-79
2022/07/24 13:45:57;;;;;;;8.70;3.65;;;36.20;37.90;;;;;;4934521;29;20083;-79
2022/07/24 13:48:23;;;;;;;5.35;3.50;;;35.80;37.50;;;;;;4934951;29;20070;-79
2022/07/24 13:50:49;;;;;;;7.68;4.15;;;36.10;38.10;;;;;;4934831;29;20110;-79
2022/07/24 13:53:15;;;;;;;5.43;3.10;;;36.00;38.40;;;;;;4934292;29;20032;-80
2022/07/24 13:55:40;;;;;;;8.30;3.97;;;36.10;38.60;;;;;;4942484;29;20023;-79
2022/07/24 13:58:06;;;;;;;13.43;4.50;;;35.90;38.30;;;;;;4934001;29;20026;-79
2022/07/24 14:00:33;;;;;;;7.93;3.47;;;36.10;38.00;;;;;;4934972;29;20023;-79
2022/07/24 14:02:58;;;;;;;7.85;3.72;;;36.10;38.70;;;;;;4934194;29;20031;-79
2022/07/24 14:05:27;;;;;;;7.35;3.47;;;36.30;37.50;;;;;;4934194;29;20502;-79
2022/07/24 14:07:53;;;;;;;6.05;3.88;;;36.30;37.70;;;;;;4934723;29;20027;-80
2022/07/24 14:10:21;;;;;;;8.75;3.67;;;36.20;37.80;;;;;;4944684;29;20047;-80
2022/07/24 14:12:47;;;;;;;7.80;3.95;;;36.50;37.00;;;;;;4944562;29;20050;-79
2022/07/24 14:15:13;;;;;;;9.70;3.72;;;36.70;37.60;;;;;;4928734;29;20042;-79
2022/07/24 14:17:40;;;;;;;8.45;4.38;;;36.70;36.80;;;;;;4945092;29;20031;-79
2022/07/24 14:20:08;;;;;;;9.80;4.80;;;36.40;36.10;;;;;;4942330;29;21264;-80
2022/07/24 14:22:34;;;;;;;6.38;3.60;;;36.30;36.90;;;;;;4946648;29;20042;-80
2022/07/24 14:25:00;;;;;;;8.50;3.55;;;36.60;36.50;;;;;;4937111;29;20032;-80
2022/07/24 14:27:27;;;;;;;8.15;4.10;;;36.90;36.40;;;;;;4948461;29;20034;-81
2022/07/24 14:29:53;;;;;;;7.35;3.85;;;36.70;36.60;;;;;;4942934;28;20023;-81
2022/07/24 14:32:19;;;;;;;6.80;3.63;;;36.40;36.40;;;;;;4952084;29;20035;-80
2022/07/24 14:34:45;;;;;;;6.32;4.15;;;36.50;36.20;;;;;;4946639;29;20106;-81
2022/07/24 14:37:10;;;;;;;6.13;4.13;;;36.20;36.00;;;;;;4945688;29;20390;-81
2022/07/24 14:39:36;;;;;;;9.80;3.90;;;36.30;36.30;;;;;;4945691;29;20031;-81
2022/07/24 14:42:02;;;;;;;8.82;3.70;;;36.60;36.90;;;;;;4945148;29;20059;-81
2022/07/24 14:44:27;;;;;;;6.80;4.25;;;36.40;37.60;;;;;;4947123;29;20032;-80
2022/07/24 14:46:53;;;;;;;8.38;3.63;;;36.20;37.80;;;;;;4943854;29;20051;-81
2022/07/24 14:49:19;;;;;;;7.82;3.85;;;36.40;36.40;;;;;;4952570;29;20031;-81
2022/07/24 14:51:44;;;;;;;8.73;4.18;;;36.40;36.60;;;;;;4938250;29;20103;-81
2022/07/24 14:54:10;;;;;;;9.13;4.00;;;36.20;36.50;;;;;;4951153;29;20471;-81
2022/07/24 14:56:36;;;;;;;14.00;3.92;;;36.20;36.60;;;;;;4938918;29;20023;-81
2022/07/24 14:59:03;;;;;;;9.63;4.40;;;36.00;36.40;;;;;;4938055;29;20381;-80
2022/07/24 15:01:28;;;;;;;11.57;4.00;;;36.00;37.00;;;;;;4950429;29;20090;-80
2022/07/24 15:03:54;;;;;;;7.20;3.85;;;36.30;37.60;;;;;;4944019;29;20107;-81
2022/07/24 15:06:20;;;;;;;6.70;4.00;;;36.30;36.80;;;;;;4942926;29;20028;-80